Time;durP1;ratioP1;P1;durP2;ratioP2;P2;SDS_P1;SDS_P2;PMS_P1;PMS_P2;Temp;Humidity;BMP_temperature;BMP_pressure;BME280_temperature;BME280_humidity;BME280_pressure;Samples;Min_cycle;Max_cycle;Signal;HPM_P1;HPM_P2
2023/07/09 00:00:13;;;;;;;;;;;23.70;45.20;;;;;;6305371;22;19911;-76
2023/07/09 00:02:39;;;;;;;;;;;23.60;45.20;;;;;;6305975;22;19911;-76
2023/07/09 00:05:05;;;;;;;;;;;23.50;45.10;;;;;;6305387;22;19915;-76
2023/07/09 00:07:31;;;;;;;;;;;23.50;45.80;;;;;;6305798;22;19907;-76
2023/07/09 00:09:57;;;;;;;;;;;23.50;46.30;;;;;;6305292;22;19933;-76
2023/07/09 00:12:22;;;;;;;;;;;23.50;46.10;;;;;;6305901;22;20256;-73
2023/07/09 00:14:48;;;;;;;;;;;23.40;46.00;;;;;;6305332;22;20253;-76
2023/07/09 00:17:25;;;;;;;;;;;23.30;46.00;;;;;;6305286;22;19918;-76
2023/07/09 00:19:51;;;;;;;;;;;23.30;46.00;;;;;;6305253;22;19993;-76
2023/07/09 00:22:17;;;;;;;;;;;23.20;46.00;;;;;;6305416;22;19934;-76
2023/07/09 00:24:50;;;;;;;;;;;23.20;46.10;;;;;;6305183;22;19911;-75
2023/07/09 00:27:27;;;;;;;;;;;23.10;46.10;;;;;;6305491;22;19914;-76
2023/07/09 00:29:53;;;;;;;;;;;23.00;46.20;;;;;;6305364;22;19907;-75
2023/07/09 00:32:20;;;;;;;;;;;22.90;46.20;;;;;;6305436;22;19914;-76
2023/07/09 00:34:48;;;;;;;;;;;22.80;46.40;;;;;;6305117;22;20222;-75
2023/07/09 00:37:14;;;;;;;;;;;22.80;46.40;;;;;;6305397;22;20237;-76
2023/07/09 00:39:40;;;;;;;;;;;22.80;46.40;;;;;;6305184;22;19907;-76
2023/07/09 00:42:09;;;;;;;;;;;22.70;46.50;;;;;;6305366;22;19907;-76
2023/07/09 00:44:35;;;;;;;;;;;22.70;46.60;;;;;;6305436;22;20337;-75
2023/07/09 00:47:03;;;;;;;;;;;22.70;46.70;;;;;;6305432;22;19914;-72
2023/07/09 00:49:33;;;;;;;;;;;22.60;47.00;;;;;;6305414;22;19911;-75
2023/07/09 00:52:02;;;;;;;;;;;22.50;47.00;;;;;;6305642;22;19907;-75
2023/07/09 00:54:32;;;;;;;;;;;22.50;46.90;;;;;;6305574;22;19937;-75
2023/07/09 00:57:02;;;;;;;;;;;22.50;47.00;;;;;;6305423;22;20206;-75
2023/07/09 00:59:29;;;;;;;;;;;22.40;47.00;;;;;;6278145;22;19907;-75
2023/07/09 01:01:55;;;;;;;;;;;22.40;47.10;;;;;;6278438;22;19914;-69
2023/07/09 01:04:21;;;;;;;;;;;22.30;47.40;;;;;;6305790;22;19907;-68
2023/07/09 01:06:48;;;;;;;;;;;22.30;47.50;;;;;;6305685;22;20344;-68
2023/07/09 01:09:14;;;;;;;;;;;22.30;47.60;;;;;;6305643;22;19906;-68
2023/07/09 01:11:40;;;;;;;;;;;22.20;47.50;;;;;;6305601;22;19930;-69
2023/07/09 01:14:07;;;;;;;;;;;22.10;47.70;;;;;;6305690;22;19907;-69
2023/07/09 01:16:37;;;;;;;;;;;22.10;47.80;;;;;;6305852;22;20286;-68
2023/07/09 01:19:04;;;;;;;;;;;22.10;47.90;;;;;;6305865;22;19943;-69
2023/07/09 01:21:29;;;;;;;;;;;22.00;48.30;;;;;;6305679;22;20329;-69
2023/07/09 01:23:55;;;;;;;;;;;22.00;48.30;;;;;;6305990;22;19906;-69
2023/07/09 01:26:24;;;;;;;;;;;22.00;48.60;;;;;;6305515;22;19939;-69
2023/07/09 01:28:50;;;;;;;;;;;22.00;48.70;;;;;;6305568;22;19911;-69
2023/07/09 01:31:16;;;;;;;;;;;22.00;48.80;;;;;;6305928;22;20013;-69
2023/07/09 01:33:44;;;;;;;;;;;21.90;48.90;;;;;;6278451;22;19949;-69
2023/07/09 01:36:13;;;;;;;;;;;21.90;49.00;;;;;;6305214;22;19907;-69
2023/07/09 01:38:39;;;;;;;;;;;21.80;49.00;;;;;;6306389;22;19911;-68
2023/07/09 01:41:04;;;;;;;;;;;21.80;49.20;;;;;;6305731;22;19907;-69
2023/07/09 01:43:31;;;;;;;;;;;21.80;49.20;;;;;;6306057;22;19986;-69
2023/07/09 01:45:57;;;;;;;;;;;21.70;49.60;;;;;;6305557;22;19907;-69
2023/07/09 01:48:24;;;;;;;;;;;21.70;50.20;;;;;;6305793;22;19911;-69
2023/07/09 01:50:50;;;;;;;;;;;21.70;50.10;;;;;;6304869;22;19946;-68
2023/07/09 01:53:16;;;;;;;;;;;21.60;50.00;;;;;;6304892;22;19991;-68
2023/07/09 01:55:42;;;;;;;;;;;21.60;50.10;;;;;;6305206;22;19968;-69
2023/07/09 01:58:08;;;;;;;;;;;21.60;50.20;;;;;;6306100;22;19911;-69
2023/07/09 02:00:34;;;;;;;;;;;21.50;50.30;;;;;;6306233;22;19907;-68
2023/07/09 02:03:01;;;;;;;;;;;21.50;50.60;;;;;;6307141;22;20321;-68
2023/07/09 02:05:29;;;;;;;;;;;21.40;51.50;;;;;;6306981;22;19914;-68
2023/07/09 02:07:54;;;;;;;;;;;21.40;51.10;;;;;;6307037;22;19911;-68
2023/07/09 02:10:20;;;;;;;;;;;21.40;51.10;;;;;;6306870;22;20325;-68
2023/07/09 02:12:46;;;;;;;;;;;21.30;51.10;;;;;;6307431;22;19907;-68
2023/07/09 02:15:11;;;;;;;;;;;21.30;51.30;;;;;;6307290;22;19911;-68
2023/07/09 02:17:37;;;;;;;;;;;21.30;51.30;;;;;;6307249;22;19962;-68
2023/07/09 02:20:05;;;;;;;;;;;21.30;51.40;;;;;;6306965;22;19989;-68
2023/07/09 02:22:30;;;;;;;;;;;21.30;51.40;;;;;;6307348;22;19907;-68
2023/07/09 02:24:56;;;;;;;;;;;21.30;51.30;;;;;;6306906;22;19914;-68
2023/07/09 02:27:21;;;;;;;;;;;21.30;51.30;;;;;;6279529;22;19913;-67
2023/07/09 02:29:47;;;;;;;;;;;21.30;51.70;;;;;;6306776;22;19907;-68
2023/07/09 02:32:20;;;;;;;;;;;21.30;51.60;;;;;;6307105;22;19906;-68
2023/07/09 02:34:48;;;;;;;;;;;21.30;51.70;;;;;;6307192;22;19914;-68
2023/07/09 02:37:15;;;;;;;;;;;21.20;51.60;;;;;;6306923;22;20279;-68
2023/07/09 02:39:40;;;;;;;;;;;21.20;51.60;;;;;;6306934;22;19943;-68
2023/07/09 02:42:08;;;;;;;;;;;21.20;51.60;;;;;;6307116;22;19906;-68
2023/07/09 02:44:33;;;;;;;;;;;21.20;51.60;;;;;;6306678;22;20329;-67
2023/07/09 02:46:59;;;;;;;;;;;21.20;51.50;;;;;;6306661;22;19957;-68
2023/07/09 02:49:24;;;;;;;;;;;21.10;51.50;;;;;;6279200;22;19957;-67
2023/07/09 02:51:49;;;;;;;;;;;21.10;51.60;;;;;;6306626;22;19973;-67
2023/07/09 02:54:15;;;;;;;;;;;21.10;51.60;;;;;;6306573;22;19907;-67
2023/07/09 02:56:40;;;;;;;;;;;21.10;51.70;;;;;;6306324;22;19911;-68
2023/07/09 02:59:06;;;;;;;;;;;21.00;51.80;;;;;;6306544;22;19953;-68
2023/07/09 03:01:34;;;;;;;;;;;21.00;51.80;;;;;;6306356;22;19903;-68
2023/07/09 03:04:01;;;;;;;;;;;21.00;51.80;;;;;;6306541;22;19989;-68
2023/07/09 03:06:27;;;;;;;;;;;21.00;52.00;;;;;;6306855;22;20304;-68
2023/07/09 03:08:53;;;;;;;;;;;21.00;52.20;;;;;;6307353;22;20046;-67
2023/07/09 03:11:19;;;;;;;;;;;20.90;52.30;;;;;;6306339;22;19922;-67
2023/07/09 03:13:44;;;;;;;;;;;20.90;52.20;;;;;;6307066;22;19910;-67
2023/07/09 03:16:10;;;;;;;;;;;20.90;52.10;;;;;;6306486;22;20248;-68
2023/07/09 03:18:36;;;;;;;;;;;20.90;52.10;;;;;;6307106;22;19903;-67
2023/07/09 03:21:01;;;;;;;;;;;20.90;54.00;;;;;;6306593;22;20244;-68
2023/07/09 03:23:26;;;;;;;;;;;20.90;54.10;;;;;;6307004;22;20320;-68
2023/07/09 03:25:52;;;;;;;;;;;21.00;53.60;;;;;;6306413;22;19956;-68
2023/07/09 03:28:17;;;;;;;;;;;21.00;53.90;;;;;;6306894;22;19903;-67
2023/07/09 03:30:44;;;;;;;;;;;21.00;53.90;;;;;;6306363;22;19917;-68
2023/07/09 03:33:10;;;;;;;;;;;21.00;53.60;;;;;;6306898;22;19910;-67
2023/07/09 03:35:36;;;;;;;;;;;21.00;54.20;;;;;;6306218;22;19949;-67
2023/07/09 03:38:01;;;;;;;;;;;21.10;54.50;;;;;;6306587;22;19922;-67
2023/07/09 03:40:27;;;;;;;;;;;21.10;54.40;;;;;;6305664;22;19911;-68
2023/07/09 03:42:52;;;;;;;;;;;21.20;54.80;;;;;;6306418;22;19925;-68
2023/07/09 03:45:18;;;;;;;;;;;21.30;54.80;;;;;;6305936;22;19914;-67
2023/07/09 03:47:43;;;;;;;;;;;21.50;54.90;;;;;;6306357;22;19903;-67
2023/07/09 03:50:09;;;;;;;;;;;21.60;54.70;;;;;;6306114;22;19915;-67
2023/07/09 03:52:35;;;;;;;;;;;21.80;54.50;;;;;;6306450;22;19907;-68
2023/07/09 03:55:01;;;;;;;;;;;22.00;54.70;;;;;;6306079;22;20333;-67
2023/07/09 03:57:26;;;;;;;;;;;22.20;54.70;;;;;;6306064;22;19915;-67
2023/07/09 03:59:52;;;;;;;;;;;22.40;54.60;;;;;;6306147;22;19907;-67
2023/07/09 04:02:18;;;;;;;;;;;22.60;54.40;;;;;;6306240;22;19907;-67
2023/07/09 04:04:43;;;;;;;;;;;22.80;54.30;;;;;;6306026;22;19939;-67
2023/07/09 04:07:08;;;;;;;;;;;23.00;54.10;;;;;;6306288;22;19926;-67
2023/07/09 04:09:34;;;;;;;;;;;23.30;53.90;;;;;;6305824;22;19907;-68
2023/07/09 04:12:01;;;;;;;;;;;23.50;53.70;;;;;;6305758;22;19907;-67
2023/07/09 04:14:26;;;;;;;;;;;23.70;53.50;;;;;;6305717;22;19907;-67
2023/07/09 04:16:52;;;;;;;;;;;23.90;53.40;;;;;;6305908;22;19918;-67
2023/07/09 04:19:17;;;;;;;;;;;24.20;53.00;;;;;;6306038;22;19907;-68
2023/07/09 04:21:43;;;;;;;;;;;24.30;52.80;;;;;;6306113;22;20268;-69
2023/07/09 04:24:08;;;;;;;;;;;24.60;52.60;;;;;;6305788;22;19911;-67
2023/07/09 04:26:35;;;;;;;;;;;24.80;52.20;;;;;;6305702;22;19907;-67
2023/07/09 04:29:00;;;;;;;;;;;25.10;52.00;;;;;;6278457;22;19907;-68
2023/07/09 04:31:26;;;;;;;;;;;25.30;51.80;;;;;;6305487;22;19903;-67
2023/07/09 04:33:52;;;;;;;;;;;25.60;51.50;;;;;;6306363;22;19977;-68
2023/07/09 04:36:18;;;;;;;;;;;25.90;51.00;;;;;;6305816;22;20386;-68
2023/07/09 04:38:43;;;;;;;;;;;26.20;50.40;;;;;;6306445;22;19910;-68
2023/07/09 04:41:09;;;;;;;;;;;26.30;50.00;;;;;;6305689;22;19918;-67
2023/07/09 04:43:34;;;;;;;;;;;26.60;49.70;;;;;;6306317;22;19941;-69
2023/07/09 04:45:59;;;;;;;;;;;26.80;49.40;;;;;;6305720;22;19966;-67
2023/07/09 04:48:25;;;;;;;;;;;27.10;49.00;;;;;;6306078;22;19907;-68
2023/07/09 04:50:51;;;;;;;;;;;27.30;48.50;;;;;;6305851;22;19989;-69
2023/07/09 04:53:16;;;;;;;;;;;27.60;48.30;;;;;;6306520;22;19961;-68
2023/07/09 04:55:42;;;;;;;;;;;27.80;48.00;;;;;;6305489;22;19988;-68
2023/07/09 04:58:07;;;;;;;;;;;28.20;47.70;;;;;;6305929;22;19910;-68
2023/07/09 05:00:33;;;;;;;;;;;28.50;47.20;;;;;;6305578;22;19969;-68
2023/07/09 05:02:58;;;;;;;;;;;28.80;46.60;;;;;;6306046;22;19911;-68
2023/07/09 05:05:24;;;;;;;;;;;29.10;46.20;;;;;;6305574;22;19977;-69
2023/07/09 05:07:50;;;;;;;;;;;29.30;45.30;;;;;;6306198;22;19910;-68
2023/07/09 05:10:16;;;;;;;;;;;29.60;45.00;;;;;;6305692;22;19910;-68
2023/07/09 05:12:52;;;;;;;;;;;29.90;44.60;;;;;;6305850;22;19953;-68
2023/07/09 05:15:18;;;;;;;;;;;30.20;44.10;;;;;;6278057;22;20282;-68
2023/07/09 05:17:44;;;;;;;;;;;30.50;43.40;;;;;;6305497;22;20445;-68
2023/07/09 05:20:10;;;;;;;;;;;30.80;42.80;;;;;;6305399;22;19911;-68
2023/07/09 05:22:35;;;;;;;;;;;31.20;42.50;;;;;;6305669;22;19910;-68
2023/07/09 05:25:00;;;;;;;;;;;31.50;41.80;;;;;;6277920;22;19911;-68
2023/07/09 05:27:26;;;;;;;;;;;31.80;41.20;;;;;;6305532;22;19903;-70
2023/07/09 05:29:51;;;;;;;;;;;32.30;40.00;;;;;;6305495;22;20390;-69
2023/07/09 05:32:17;;;;;;;;;;;32.60;39.80;;;;;;6305157;22;19933;-69
2023/07/09 05:34:42;;;;;;;;;;;33.00;39.00;;;;;;6306217;22;20000;-69
2023/07/09 05:37:07;;;;;;;;;;;33.30;38.40;;;;;;6307272;22;20150;-68
2023/07/09 05:39:33;;;;;;;;;;;33.70;37.70;;;;;;6307086;22;20194;-68
2023/07/09 05:41:59;;;;;;;;;;;34.00;37.20;;;;;;6307611;22;19904;-68
2023/07/09 05:44:24;;;;;;;;;;;34.20;36.40;;;;;;6307314;22;20218;-69
2023/07/09 05:46:50;;;;;;;;;;;34.20;35.60;;;;;;6279697;22;20540;-68
2023/07/09 05:49:15;;;;;;;;;;;34.00;35.30;;;;;;6306910;22;20325;-68
2023/07/09 05:51:40;;;;;;;;;;;33.80;35.20;;;;;;6306718;22;19907;-69
2023/07/09 05:54:06;;;;;;;;;;;33.50;35.30;;;;;;6306929;22;19918;-68
2023/07/09 05:56:31;;;;;;;;;;;33.40;35.40;;;;;;6306425;22;19911;-70
2023/07/09 05:58:57;;;;;;;;;;;33.40;35.50;;;;;;6307253;22;19911;-68
2023/07/09 06:01:22;;;;;;;;;;;33.60;35.50;;;;;;6306961;22;20321;-69
2023/07/09 06:03:48;;;;;;;;;;;33.60;35.20;;;;;;6307638;22;19933;-68
2023/07/09 06:06:14;;;;;;;;;;;33.50;35.00;;;;;;6307216;22;19910;-68
2023/07/09 06:08:39;;;;;;;;;;;33.40;35.00;;;;;;6307485;22;19925;-68
2023/07/09 06:11:05;;;;;;;;;;;33.40;35.00;;;;;;6279516;22;19957;-70
2023/07/09 06:13:31;;;;;;;;;;;33.50;35.50;;;;;;6307458;22;19903;-68
2023/07/09 06:15:57;;;;;;;;;;;33.90;35.60;;;;;;6306951;22;19918;-68
2023/07/09 06:18:23;;;;;;;;;;;34.30;35.30;;;;;;6307408;22;19914;-68
2023/07/09 06:20:52;;;;;;;;;;;34.70;34.80;;;;;;6306969;22;19915;-68
2023/07/09 06:23:18;;;;;;;;;;;35.20;34.50;;;;;;6307148;22;19902;-68
2023/07/09 06:25:47;;;;;;;;;;;35.70;33.80;;;;;;6306521;22;20019;-68
2023/07/09 06:28:13;;;;;;;;;;;36.20;33.00;;;;;;6307281;22;19903;-68
2023/07/09 06:30:38;;;;;;;;;;;36.60;32.70;;;;;;6306761;22;19986;-68
2023/07/09 06:33:03;;;;;;;;;;;37.00;32.10;;;;;;6307384;22;19934;-67
2023/07/09 06:35:29;;;;;;;;;;;37.40;31.20;;;;;;6306877;22;19918;-67
2023/07/09 06:37:54;;;;;;;;;;;37.60;30.70;;;;;;6306878;22;19906;-68
2023/07/09 06:40:20;;;;;;;;;;;37.90;30.40;;;;;;6306930;22;19990;-68
2023/07/09 06:42:45;;;;;;;;;;;38.30;30.30;;;;;;6306457;22;19903;-68
2023/07/09 06:45:11;;;;;;;;;;;38.60;30.20;;;;;;6306780;22;19915;-68
2023/07/09 06:47:36;;;;;;;;;;;39.00;29.70;;;;;;6306717;22;20312;-69
2023/07/09 06:50:02;;;;;;;;;;;39.30;29.10;;;;;;6306475;22;19915;-68
2023/07/09 06:52:27;;;;;;;;;;;39.70;28.80;;;;;;6306822;22;19903;-68
2023/07/09 06:54:52;;;;;;;;;;;40.00;28.70;;;;;;6306348;22;20245;-68
2023/07/09 06:57:18;;;;;;;;;;;40.50;28.40;;;;;;6306527;22;20325;-68
2023/07/09 06:59:43;;;;;;;;;;;40.80;27.50;;;;;;6306573;22;19907;-68
2023/07/09 07:02:09;;;;;;;;;;;41.00;27.30;;;;;;6306399;22;19911;-68
2023/07/09 07:04:34;;;;;;;;;;;41.30;26.70;;;;;;6279080;22;20009;-69
2023/07/09 07:06:59;;;;;;;;;;;41.60;26.50;;;;;;6306519;22;19958;-68
2023/07/09 07:09:25;;;;;;;;;;;41.80;26.50;;;;;;6306358;22;19907;-69
2023/07/09 07:11:50;;;;;;;;;;;42.10;26.30;;;;;;6305957;22;19942;-68
2023/07/09 07:14:16;;;;;;;;;;;42.40;25.90;;;;;;6306365;22;19911;-68
2023/07/09 07:16:41;;;;;;;;;;;42.60;25.80;;;;;;6305905;22;19906;-68
2023/07/09 07:19:07;;;;;;;;;;;42.80;25.20;;;;;;6306268;22;19913;-68
2023/07/09 07:21:32;;;;;;;;;;;43.00;25.10;;;;;;6306506;22;19909;-69
2023/07/09 07:23:57;;;;;;;;;;;43.20;25.10;;;;;;6304127;22;19961;-69
2023/07/09 07:26:23;;;;;;;;;;;43.50;25.10;;;;;;6306361;22;19903;-69
2023/07/09 07:28:50;;;;;;;;;;;43.80;24.70;;;;;;6305824;22;20344;-69
2023/07/09 07:31:16;;;;;;;;;;;44.10;24.50;;;;;;6306915;22;20368;-69
2023/07/09 07:33:41;;;;;;;;;;;44.40;24.20;;;;;;6304059;22;20016;-66
2023/07/09 07:36:07;;;;;;;;;;;44.70;23.90;;;;;;6306215;22;19929;-67
2023/07/09 07:38:33;;;;;;;;;;;44.90;23.50;;;;;;6306160;22;19913;-67
2023/07/09 07:40:58;;;;;;;;;;;45.00;23.50;;;;;;6306156;22;20283;-67
2023/07/09 07:43:23;;;;;;;;;;;45.30;23.30;;;;;;6303325;22;19903;-68
2023/07/09 07:45:49;;;;;;;;;;;45.50;23.00;;;;;;6306506;22;19910;-67
2023/07/09 07:48:15;;;;;;;;;;;45.70;23.00;;;;;;6305943;22;19942;-68
2023/07/09 07:50:40;;;;;;;;;;;46.00;22.50;;;;;;6306019;22;19911;-67
2023/07/09 07:53:07;;;;;;;;;;;46.30;22.50;;;;;;6303874;22;19903;-67
2023/07/09 07:55:33;;;;;;;;;;;46.60;22.30;;;;;;6306211;22;20332;-67
2023/07/09 07:57:59;;;;;;;;;;;46.80;22.10;;;;;;6305655;22;19919;-68
2023/07/09 08:00:27;;;;;;;;;;;47.10;21.90;;;;;;6306460;22;19985;-67
2023/07/09 08:02:52;;;;;;;;;;;47.20;21.70;;;;;;6302319;22;19914;-67
2023/07/09 08:05:18;;;;;;;;;;;47.50;21.40;;;;;;6306003;22;19915;-67
2023/07/09 08:07:43;;;;;;;;;;;47.60;21.30;;;;;;6305430;22;19914;-67
2023/07/09 08:10:09;;;;;;;;;;;47.70;20.60;;;;;;6305609;22;19914;-67
2023/07/09 08:12:34;;;;;;;;;;;47.80;20.60;;;;;;6301734;22;20325;-67
2023/07/09 08:15:00;;;;;;;;;;;48.00;20.60;;;;;;6305524;22;19907;-67
2023/07/09 08:17:25;;;;;;;;;;;48.20;20.60;;;;;;6306623;22;19911;-67
2023/07/09 08:19:53;;;;;;;;;;;48.40;20.20;;;;;;6305169;22;20321;-67
2023/07/09 08:22:20;;;;;;;;;;;48.40;20.20;;;;;;6300939;22;19910;-68
2023/07/09 08:24:46;;;;;;;;;;;48.50;20.00;;;;;;6305564;22;19952;-67
2023/07/09 08:27:11;;;;;;;;;;;48.50;19.50;;;;;;6305952;22;20329;-67
2023/07/09 08:29:37;;;;;;;;;;;48.50;19.40;;;;;;6278043;22;20009;-68
2023/07/09 08:32:03;;;;;;;;;;;48.70;19.40;;;;;;6304129;22;19907;-68
2023/07/09 08:34:29;;;;;;;;;;;48.90;19.30;;;;;;6303385;22;19915;-74
2023/07/09 08:36:54;;;;;;;;;;;49.10;19.40;;;;;;6305629;22;19911;-74
2023/07/09 08:39:20;;;;;;;;;;;49.30;19.30;;;;;;6305502;22;19989;-67
2023/07/09 08:41:52;;;;;;;;;;;49.50;19.30;;;;;;6305623;22;19933;-68
2023/07/09 08:44:31;;;;;;;;;;;49.70;19.20;;;;;;6302784;22;19911;-67
2023/07/09 08:47:02;;;;;;;;;;;50.00;18.90;;;;;;6305608;22;19959;-67
2023/07/09 08:49:38;;;;;;;;;;;50.10;18.80;;;;;;6305373;22;19972;-68
2023/07/09 08:52:09;;;;;;;;;;;50.20;18.60;;;;;;6303410;22;19906;-67
2023/07/09 08:54:35;;;;;;;;;;;50.10;18.20;;;;;;6304612;22;20521;-68
2023/07/09 08:57:21;;;;;;;;;;;50.10;18.50;;;;;;6305484;22;19911;-68
2023/07/09 08:59:47;;;;;;;;;;;50.30;18.30;;;;;;6303677;22;19907;-68
2023/07/09 09:02:16;;;;;;;;;;;50.30;18.20;;;;;;6302057;22;19949;-69
2023/07/09 09:04:42;;;;;;;;;;;50.30;18.00;;;;;;6305401;22;19929;-70
2023/07/09 09:07:10;;;;;;;;;;;50.40;18.20;;;;;;6306217;22;20309;-68
2023/07/09 09:09:52;;;;;;;;;;;50.50;18.30;;;;;;6306642;22;19907;-68
2023/07/09 09:12:38;;;;;;;;;;;50.60;18.10;;;;;;6303821;22;19911;-69
2023/07/09 09:15:10;;;;;;;;;;;50.70;18.00;;;;;;6307420;22;20321;-67
2023/07/09 09:17:37;;;;;;;;;;;50.80;17.90;;;;;;6307676;22;19910;-68
2023/07/09 09:20:04;;;;;;;;;;;50.90;17.90;;;;;;6307108;22;19907;-68
2023/07/09 09:22:39;;;;;;;;;;;51.10;17.80;;;;;;6276773;22;20405;-68
2023/07/09 09:25:24;;;;;;;;;;;51.20;17.90;;;;;;6304777;22;20332;-68
2023/07/09 09:27:49;;;;;;;;;;;51.30;17.60;;;;;;6306848;22;19960;-68
2023/07/09 09:30:16;;;;;;;;;;;51.20;17.60;;;;;;6307546;22;20279;-69
2023/07/09 09:32:43;;;;;;;;;;;51.10;17.50;;;;;;6305116;22;19913;-68
2023/07/09 09:35:13;;;;;;;;;;;51.00;17.50;;;;;;6306668;22;19907;-67
2023/07/09 09:37:38;;;;;;;;;;;51.00;17.60;;;;;;6307498;22;19911;-68
2023/07/09 09:40:04;;;;;;;;;;;51.10;17.80;;;;;;6310018;22;19914;-74
2023/07/09 09:42:30;;;;;;;;;;;51.20;17.70;;;;;;6305839;22;19915;-75
2023/07/09 09:44:55;;;;;;;;;;;51.20;17.50;;;;;;6306983;22;20317;-68
2023/07/09 09:47:21;;;;;;;;;;;51.10;17.60;;;;;;6279741;22;20237;-68
2023/07/09 09:49:46;;;;;;;;;;;51.10;17.70;;;;;;6306951;22;19914;-69
2023/07/09 09:52:13;;;;;;;;;;;51.10;17.70;;;;;;6304991;22;20241;-70
2023/07/09 09:54:40;;;;;;;;;;;50.90;17.50;;;;;;6306090;22;20257;-68
2023/07/09 09:57:17;;;;;;;;;;;50.80;17.70;;;;;;6279273;22;20295;-68
2023/07/09 09:59:42;;;;;;;;;;;50.80;17.70;;;;;;6307189;22;19913;-68
2023/07/09 10:02:22;;;;;;;;;;;50.70;17.80;;;;;;6304648;22;19939;-70
2023/07/09 10:04:48;;;;;;;;;;;50.70;17.50;;;;;;6307152;22;20277;-74
2023/07/09 10:07:23;;;;;;;;;;;50.70;17.70;;;;;;6307401;22;19942;-74
2023/07/09 10:09:52;;;;;;;;;;;50.70;17.70;;;;;;6307010;22;19907;-74
2023/07/09 10:12:39;;;;;;;;;;;50.60;17.80;;;;;;6275552;22;19914;-74
2023/07/09 10:15:05;;;;;;;;;;;50.70;18.00;;;;;;6307019;22;19929;-75
2023/07/09 10:17:33;;;;;;;;;;;50.80;17.90;;;;;;6306985;22;19915;-68
2023/07/09 10:20:06;;;;;;;;;;;50.90;18.00;;;;;;6306556;22;19911;-69
2023/07/09 10:22:37;;;;;;;;;;;51.00;17.90;;;;;;6302803;22;19918;-67
2023/07/09 10:25:05;;;;;;;;;;;51.10;18.00;;;;;;6306800;22;19907;-67
2023/07/09 10:27:46;;;;;;;;;;;51.20;17.90;;;;;;6306563;22;19907;-68
2023/07/09 10:30:14;;;;;;;;;;;51.10;17.80;;;;;;6277395;22;19911;-69
2023/07/09 10:32:48;;;;;;;;;;;51.00;17.80;;;;;;6302852;22;20307;-68
2023/07/09 10:35:18;;;;;;;;;;;50.90;17.80;;;;;;6307194;22;19913;-68
2023/07/09 10:38:04;;;;;;;;;;;50.90;17.90;;;;;;6306978;22;19984;-68
2023/07/09 10:40:49;;;;;;;;;;;51.00;17.70;;;;;;6305199;22;20340;-68
2023/07/09 10:43:20;;;;;;;;;;;51.00;17.70;;;;;;6301566;22;19911;-67
2023/07/09 10:45:48;;;;;;;;;;;50.90;17.80;;;;;;6307190;22;19981;-67
2023/07/09 10:48:18;;;;;;;;;;;50.80;17.60;;;;;;6305584;22;20009;-68
2023/07/09 10:50:47;;;;;;;;;;;50.70;17.70;;;;;;6305593;22;19984;-68
2023/07/09 10:53:15;;;;;;;;;;;50.70;17.60;;;;;;6306886;22;19910;-67
2023/07/09 10:56:04;;;;;;;;;;;50.60;17.60;;;;;;6305408;22;19915;-67
2023/07/09 10:58:35;;;;;;;;;;;50.40;17.70;;;;;;6286600;22;19961;-68
2023/07/09 11:01:00;;;;;;;;;;;50.40;17.70;;;;;;6305948;22;20355;-68
2023/07/09 11:03:39;;;;;;;;;;;50.30;17.80;;;;;;6306634;22;19906;-68
2023/07/09 11:06:10;;;;;;;;;;;50.40;17.90;;;;;;6306737;22;19915;-68
2023/07/09 11:08:37;;;;;;;;;;;50.40;17.80;;;;;;6306805;22;20255;-68
2023/07/09 11:11:10;;;;;;;;;;;50.40;17.80;;;;;;6305872;22;19981;-67
2023/07/09 11:13:38;;;;;;;;;;;50.40;17.90;;;;;;6307015;22;19907;-68
2023/07/09 11:16:05;;;;;;;;;;;50.50;17.60;;;;;;6305211;22;19907;-68
2023/07/09 11:18:31;;;;;;;;;;;50.30;17.50;;;;;;6306112;22;19977;-68
2023/07/09 11:21:06;;;;;;;;;;;50.20;17.80;;;;;;6306108;22;20388;-68
2023/07/09 11:23:46;;;;;;;;;;;50.30;17.80;;;;;;6306809;22;20281;-68
2023/07/09 11:26:14;;;;;;;;;;;50.10;17.60;;;;;;6305752;22;19934;-68
2023/07/09 11:28:40;;;;;;;;;;;49.90;17.70;;;;;;6305147;22;19911;-68
2023/07/09 11:31:07;;;;;;;;;;;50.00;17.70;;;;;;6305483;22;19911;-67
2023/07/09 11:33:33;;;;;;;;;;;49.80;17.80;;;;;;6306606;22;19959;-67
2023/07/09 11:36:13;;;;;;;;;;;49.80;17.80;;;;;;6306260;22;20307;-68
2023/07/09 11:38:43;;;;;;;;;;;50.00;17.90;;;;;;6306608;22;19949;-69
2023/07/09 11:41:27;;;;;;;;;;;50.00;17.80;;;;;;6306034;22;19939;-68
2023/07/09 11:43:52;;;;;;;;;;;49.90;17.80;;;;;;6306989;22;19907;-69
2023/07/09 11:46:20;;;;;;;;;;;49.80;17.70;;;;;;6305753;22;19938;-68
2023/07/09 11:48:47;;;;;;;;;;;49.60;18.00;;;;;;6305354;22;19915;-68
2023/07/09 11:51:16;;;;;;;;;;;49.40;18.30;;;;;;6304933;22;19911;-68
2023/07/09 11:53:44;;;;;;;;;;;49.40;18.30;;;;;;6305110;22;19911;-67
2023/07/09 11:56:10;;;;;;;;;;;49.10;18.10;;;;;;6305447;22;19919;-68
2023/07/09 11:58:35;;;;;;;;;;;48.90;18.30;;;;;;6306258;22;19918;-68
2023/07/09 12:01:01;;;;;;;;;;;49.00;18.10;;;;;;6305661;22;19993;-68
2023/07/09 12:03:32;;;;;;;;;;;48.90;18.20;;;;;;6278773;22;19931;-67
2023/07/09 12:06:16;;;;;;;;;;;48.80;18.20;;;;;;6304791;22;19918;-69
2023/07/09 12:08:42;;;;;;;;;;;48.70;18.30;;;;;;6306332;22;20320;-67
2023/07/09 12:11:21;;;;;;;;;;;48.70;18.10;;;;;;6305784;22;19968;-67
2023/07/09 12:13:47;;;;;;;;;;;48.70;17.80;;;;;;6304765;22;19938;-66
2023/07/09 12:16:23;;;;;;;;;;;48.60;18.00;;;;;;6305432;22;19907;-66
2023/07/09 12:18:49;;;;;;;;;;;48.70;18.10;;;;;;6305818;22;19915;-66
2023/07/09 12:21:14;;;;;;;;;;;48.90;18.30;;;;;;6305410;22;20336;-67
2023/07/09 12:23:40;;;;;;;;;;;49.10;18.30;;;;;;6305964;22;19907;-67
2023/07/09 12:26:06;;;;;;;;;;;49.30;18.30;;;;;;6277650;22;20221;-67
2023/07/09 12:28:32;;;;;;;;;;;49.50;18.00;;;;;;6305933;22;19910;-66
2023/07/09 12:30:58;;;;;;;;;;;49.60;17.70;;;;;;6305438;22;20287;-67
2023/07/09 12:33:24;;;;;;;;;;;49.60;17.40;;;;;;6302680;22;19911;-69
2023/07/09 12:35:57;;;;;;;;;;;49.60;16.90;;;;;;6304996;22;19929;-74
2023/07/09 12:38:24;;;;;;;;;;;49.70;17.10;;;;;;6305445;22;20044;-74
2023/07/09 12:40:49;;;;;;;;;;;49.70;16.80;;;;;;6304276;22;19911;-73
2023/07/09 12:43:18;;;;;;;;;;;49.70;16.80;;;;;;6300512;22;19914;-75
2023/07/09 12:45:43;;;;;;;;;;;49.60;16.60;;;;;;6306407;22;19933;-74
2023/07/09 12:48:11;;;;;;;;;;;49.50;16.50;;;;;;6305578;22;19915;-73
2023/07/09 12:50:36;;;;;;;;;;;49.40;16.70;;;;;;6304733;22;19907;-74
2023/07/09 12:53:13;;;;;;;;;;;49.50;16.80;;;;;;6301948;22;19918;-75
2023/07/09 12:55:40;;;;;;;;;;;49.70;16.90;;;;;;6305552;22;19915;-73
2023/07/09 12:58:09;;;;;;;;;;;49.80;16.50;;;;;;6305171;22;20327;-70
2023/07/09 13:00:34;;;;;;;;;;;49.80;16.70;;;;;;6306012;22;19914;-72
2023/07/09 13:03:00;;;;;;;;;;;49.80;16.40;;;;;;6302155;22;19907;-73
2023/07/09 13:05:26;;;;;;;;;;;49.80;16.20;;;;;;6305563;22;19997;-76
2023/07/09 13:07:53;;;;;;;;;;;49.70;15.90;;;;;;6304340;22;19907;-72
2023/07/09 13:10:19;;;;;;;;;;;49.50;16.20;;;;;;6304677;22;19907;-67
2023/07/09 13:12:48;;;;;;;;;;;49.40;16.10;;;;;;6305508;22;19907;-73
2023/07/09 13:15:30;;;;;;;;;;;49.00;16.60;;;;;;6306012;22;19989;-73
2023/07/09 13:17:57;;;;;;;;;;;48.80;16.40;;;;;;6304501;22;20341;-73
2023/07/09 13:20:22;;;;;;;;;;;48.60;16.40;;;;;;6305026;22;19914;-74
2023/07/09 13:22:47;;;;;;;;;;;48.50;16.20;;;;;;6302079;22;19911;-74
2023/07/09 13:25:13;;;;;;;;;;;48.30;16.30;;;;;;6304360;22;19907;-74
2023/07/09 13:27:38;;;;;;;;;;;48.10;16.30;;;;;;6305608;22;20041;-71
2023/07/09 13:30:04;;;;;;;;;;;48.00;16.50;;;;;;6304791;22;20377;-73
2023/07/09 13:32:30;;;;;;;;;;;48.10;16.80;;;;;;6302874;22;20269;-73
2023/07/09 13:34:55;;;;;;;;;;;48.20;16.90;;;;;;6303662;22;19929;-74
2023/07/09 13:37:20;;;;;;;;;;;48.30;16.70;;;;;;6304291;22;19918;-74
2023/07/09 13:39:47;;;;;;;;;;;48.10;16.50;;;;;;6304248;22;19911;-74
2023/07/09 13:42:13;;;;;;;;;;;47.80;16.40;;;;;;6276129;22;19911;-74
2023/07/09 13:44:40;;;;;;;;;;;47.40;17.00;;;;;;6302087;22;20370;-74
2023/07/09 13:47:08;;;;;;;;;;;47.20;17.30;;;;;;6305473;22;19938;-67
2023/07/09 13:49:34;;;;;;;;;;;47.10;17.40;;;;;;6277370;22;19986;-68
2023/07/09 13:52:01;;;;;;;;;;;47.10;17.40;;;;;;6303784;22;19930;-69
2023/07/09 13:54:31;;;;;;;;;;;47.00;17.30;;;;;;6302899;22;19914;-68
2023/07/09 13:56:57;;;;;;;;;;;46.90;17.40;;;;;;6305944;22;20305;-68
2023/07/09 13:59:23;;;;;;;;;;;46.70;17.40;;;;;;6279471;22;19907;-68
2023/07/09 14:01:50;;;;;;;;;;;46.60;17.40;;;;;;6306982;22;20333;-67
2023/07/09 14:04:16;;;;;;;;;;;46.60;17.60;;;;;;6303224;22;19914;-67
2023/07/09 14:06:42;;;;;;;;;;;46.60;17.50;;;;;;6307224;22;19911;-68
2023/07/09 14:09:09;;;;;;;;;;;46.60;17.60;;;;;;6307101;22;20309;-68
2023/07/09 14:11:36;;;;;;;;;;;46.80;17.60;;;;;;6306819;22;19929;-68
2023/07/09 14:14:01;;;;;;;;;;;46.90;17.60;;;;;;6303097;22;19907;-70
2023/07/09 14:16:26;;;;;;;;;;;47.00;17.40;;;;;;6306661;22;19914;-67